sensor_id;sensor_type;location;lat;lon;timestamp;P1;durP1;ratioP1;P2;durP2;ratioP2
38717;SDS011;24468;52.128;9.278;2023-12-22T00:01:07;19.75;;;4.18;;
38717;SDS011;24468;52.128;9.278;2023-12-22T00:03:33;18.55;;;3.70;;
38717;SDS011;24468;52.128;9.278;2023-12-22T00:05:58;20.30;;;3.33;;
38717;SDS011;24468;52.128;9.278;2023-12-22T00:08:24;17.80;;;3.63;;
38717;SDS011;24468;52.128;9.278;2023-12-22T00:10:49;20.35;;;3.08;;
38717;SDS011;24468;52.128;9.278;2023-12-22T00:13:15;12.75;;;2.90;;
38717;SDS011;24468;52.128;9.278;2023-12-22T00:15:41;22.52;;;3.42;;
38717;SDS011;24468;52.128;9.278;2023-12-22T00:18:07;22.88;;;4.18;;
38717;SDS011;24468;52.128;9.278;2023-12-22T00:20:33;25.42;;;4.80;;
38717;SDS011;24468;52.128;9.278;2023-12-22T00:22:59;30.08;;;5.90;;
38717;SDS011;24468;52.128;9.278;2023-12-22T00:25:26;27.70;;;5.43;;
38717;SDS011;24468;52.128;9.278;2023-12-22T00:27:51;32.17;;;5.72;;
38717;SDS011;24468;52.128;9.278;2023-12-22T00:30:17;21.55;;;5.03;;
38717;SDS011;24468;52.128;9.278;2023-12-22T00:32:43;26.85;;;5.40;;
38717;SDS011;24468;52.128;9.278;2023-12-22T00:35:08;22.63;;;4.88;;
38717;SDS011;24468;52.128;9.278;2023-12-22T00:37:34;26.48;;;4.97;;
38717;SDS011;24468;52.128;9.278;2023-12-22T00:40:00;21.23;;;4.90;;
38717;SDS011;24468;52.128;9.278;2023-12-22T00:42:26;24.52;;;5.97;;
38717;SDS011;24468;52.128;9.278;2023-12-22T00:44:51;25.55;;;5.47;;
38717;SDS011;24468;52.128;9.278;2023-12-22T00:47:17;24.42;;;4.88;;
38717;SDS011;24468;52.128;9.278;2023-12-22T00:49:43;24.35;;;4.60;;
38717;SDS011;24468;52.128;9.278;2023-12-22T00:52:08;18.60;;;3.92;;
38717;SDS011;24468;52.128;9.278;2023-12-22T00:54:34;15.32;;;4.05;;
38717;SDS011;24468;52.128;9.278;2023-12-22T00:57:00;19.90;;;4.40;;
38717;SDS011;24468;52.128;9.278;2023-12-22T00:59:26;17.77;;;4.78;;
38717;SDS011;24468;52.128;9.278;2023-12-22T01:01:51;22.23;;;3.90;;
38717;SDS011;24468;52.128;9.278;2023-12-22T01:04:17;13.93;;;2.83;;
38717;SDS011;24468;52.128;9.278;2023-12-22T01:06:42;17.77;;;3.58;;
38717;SDS011;24468;52.128;9.278;2023-12-22T01:09:08;14.65;;;2.78;;
38717;SDS011;24468;52.128;9.278;2023-12-22T01:11:34;12.98;;;4.20;;
38717;SDS011;24468;52.128;9.278;2023-12-22T01:13:59;9.93;;;2.58;;
38717;SDS011;24468;52.128;9.278;2023-12-22T01:16:25;14.90;;;2.78;;
38717;SDS011;24468;52.128;9.278;2023-12-22T01:18:50;13.55;;;4.00;;
38717;SDS011;24468;52.128;9.278;2023-12-22T01:21:16;20.95;;;3.72;;
38717;SDS011;24468;52.128;9.278;2023-12-22T01:23:42;15.82;;;3.88;;
38717;SDS011;24468;52.128;9.278;2023-12-22T01:26:08;12.02;;;2.85;;
38717;SDS011;24468;52.128;9.278;2023-12-22T01:28:33;12.30;;;3.60;;
38717;SDS011;24468;52.128;9.278;2023-12-22T01:31:00;14.90;;;2.97;;
38717;SDS011;24468;52.128;9.278;2023-12-22T01:33:26;9.65;;;2.70;;
38717;SDS011;24468;52.128;9.278;2023-12-22T01:35:52;11.77;;;3.20;;
38717;SDS011;24468;52.128;9.278;2023-12-22T01:38:18;9.68;;;2.58;;
38717;SDS011;24468;52.128;9.278;2023-12-22T01:40:44;11.32;;;2.35;;
38717;SDS011;24468;52.128;9.278;2023-12-22T01:43:09;11.90;;;2.22;;
38717;SDS011;24468;52.128;9.278;2023-12-22T01:45:35;16.38;;;2.70;;
38717;SDS011;24468;52.128;9.278;2023-12-22T01:48:00;15.88;;;3.47;;
38717;SDS011;24468;52.128;9.278;2023-12-22T01:50:27;11.60;;;2.35;;
38717;SDS011;24468;52.128;9.278;2023-12-22T01:52:53;8.43;;;2.10;;
38717;SDS011;24468;52.128;9.278;2023-12-22T01:55:20;11.23;;;3.45;;
38717;SDS011;24468;52.128;9.278;2023-12-22T01:57:46;13.77;;;2.45;;
38717;SDS011;24468;52.128;9.278;2023-12-22T02:00:14;15.13;;;3.17;;
38717;SDS011;24468;52.128;9.278;2023-12-22T02:02:40;15.57;;;2.80;;
38717;SDS011;24468;52.128;9.278;2023-12-22T02:05:09;18.02;;;3.45;;
38717;SDS011;24468;52.128;9.278;2023-12-22T02:07:36;15.90;;;3.25;;
38717;SDS011;24468;52.128;9.278;2023-12-22T02:10:07;21.85;;;3.25;;
38717;SDS011;24468;52.128;9.278;2023-12-22T02:12:34;9.65;;;2.60;;
38717;SDS011;24468;52.128;9.278;2023-12-22T02:15:03;16.88;;;3.70;;
38717;SDS011;24468;52.128;9.278;2023-12-22T02:17:39;16.50;;;3.15;;
38717;SDS011;24468;52.128;9.278;2023-12-22T02:20:16;11.48;;;3.25;;
38717;SDS011;24468;52.128;9.278;2023-12-22T02:22:42;13.20;;;4.50;;
38717;SDS011;24468;52.128;9.278;2023-12-22T02:25:08;15.52;;;3.25;;
38717;SDS011;24468;52.128;9.278;2023-12-22T02:30:14;11.57;;;4.03;;
38717;SDS011;24468;52.128;9.278;2023-12-22T02:32:57;12.40;;;4.30;;
38717;SDS011;24468;52.128;9.278;2023-12-22T02:35:26;10.55;;;2.70;;
38717;SDS011;24468;52.128;9.278;2023-12-22T02:37:55;29.92;;;5.78;;
38717;SDS011;24468;52.128;9.278;2023-12-22T02:40:22;10.55;;;3.45;;
38717;SDS011;24468;52.128;9.278;2023-12-22T02:42:50;13.38;;;2.92;;
38717;SDS011;24468;52.128;9.278;2023-12-22T02:45:17;11.57;;;2.65;;
38717;SDS011;24468;52.128;9.278;2023-12-22T02:47:44;14.63;;;3.38;;
38717;SDS011;24468;52.128;9.278;2023-12-22T02:50:10;11.30;;;2.78;;
38717;SDS011;24468;52.128;9.278;2023-12-22T02:52:38;8.48;;;2.58;;
38717;SDS011;24468;52.128;9.278;2023-12-22T02:55:04;19.35;;;3.30;;
38717;SDS011;24468;52.128;9.278;2023-12-22T02:57:30;6.35;;;1.85;;
38717;SDS011;24468;52.128;9.278;2023-12-22T02:59:56;19.05;;;4.10;;
38717;SDS011;24468;52.128;9.278;2023-12-22T03:02:23;9.40;;;2.45;;
38717;SDS011;24468;52.128;9.278;2023-12-22T03:04:49;10.63;;;2.33;;
38717;SDS011;24468;52.128;9.278;2023-12-22T03:07:16;13.98;;;2.70;;
38717;SDS011;24468;52.128;9.278;2023-12-22T03:09:42;16.20;;;2.58;;
38717;SDS011;24468;52.128;9.278;2023-12-22T03:12:08;17.15;;;2.55;;
38717;SDS011;24468;52.128;9.278;2023-12-22T03:14:35;10.23;;;2.42;;
38717;SDS011;24468;52.128;9.278;2023-12-22T03:17:02;11.05;;;3.05;;
38717;SDS011;24468;52.128;9.278;2023-12-22T03:19:30;13.82;;;3.22;;
38717;SDS011;24468;52.128;9.278;2023-12-22T03:21:56;13.50;;;2.03;;
38717;SDS011;24468;52.128;9.278;2023-12-22T03:24:22;6.30;;;2.35;;
38717;SDS011;24468;52.128;9.278;2023-12-22T03:26:49;11.63;;;2.83;;
38717;SDS011;24468;52.128;9.278;2023-12-22T03:29:15;9.82;;;2.10;;
38717;SDS011;24468;52.128;9.278;2023-12-22T03:31:42;8.32;;;1.70;;
38717;SDS011;24468;52.128;9.278;2023-12-22T03:34:08;11.75;;;2.35;;
38717;SDS011;24468;52.128;9.278;2023-12-22T03:36:34;10.75;;;2.20;;
38717;SDS011;24468;52.128;9.278;2023-12-22T03:39:00;11.98;;;2.22;;
38717;SDS011;24468;52.128;9.278;2023-12-22T03:41:27;13.32;;;2.60;;
38717;SDS011;24468;52.128;9.278;2023-12-22T03:43:54;14.00;;;2.50;;
38717;SDS011;24468;52.128;9.278;2023-12-22T03:46:20;16.90;;;2.83;;
38717;SDS011;24468;52.128;9.278;2023-12-22T03:48:46;11.75;;;2.47;;
38717;SDS011;24468;52.128;9.278;2023-12-22T03:51:12;24.80;;;3.20;;
38717;SDS011;24468;52.128;9.278;2023-12-22T03:53:39;17.08;;;3.15;;
38717;SDS011;24468;52.128;9.278;2023-12-22T03:56:07;18.83;;;2.97;;
38717;SDS011;24468;52.128;9.278;2023-12-22T03:58:37;12.02;;;3.92;;
38717;SDS011;24468;52.128;9.278;2023-12-22T04:01:03;15.60;;;3.63;;
38717;SDS011;24468;52.128;9.278;2023-12-22T04:03:29;21.30;;;2.72;;
38717;SDS011;24468;52.128;9.278;2023-12-22T04:05:55;19.95;;;3.88;;
38717;SDS011;24468;52.128;9.278;2023-12-22T04:08:22;18.27;;;3.13;;
38717;SDS011;24468;52.128;9.278;2023-12-22T04:10:47;17.70;;;3.05;;
38717;SDS011;24468;52.128;9.278;2023-12-22T04:13:13;17.77;;;3.05;;
38717;SDS011;24468;52.128;9.278;2023-12-22T04:15:39;17.85;;;3.42;;
38717;SDS011;24468;52.128;9.278;2023-12-22T04:18:05;14.50;;;3.65;;
38717;SDS011;24468;52.128;9.278;2023-12-22T04:20:31;19.58;;;4.50;;
38717;SDS011;24468;52.128;9.278;2023-12-22T04:22:57;14.00;;;2.78;;
38717;SDS011;24468;52.128;9.278;2023-12-22T04:25:23;19.38;;;3.42;;
38717;SDS011;24468;52.128;9.278;2023-12-22T04:27:50;11.23;;;2.33;;
38717;SDS011;24468;52.128;9.278;2023-12-22T04:30:16;14.85;;;3.28;;
38717;SDS011;24468;52.128;9.278;2023-12-22T04:32:41;12.00;;;2.53;;
38717;SDS011;24468;52.128;9.278;2023-12-22T04:35:07;7.57;;;2.08;;
38717;SDS011;24468;52.128;9.278;2023-12-22T04:37:33;15.95;;;2.72;;
38717;SDS011;24468;52.128;9.278;2023-12-22T04:39:59;11.60;;;2.72;;
38717;SDS011;24468;52.128;9.278;2023-12-22T04:42:25;16.80;;;3.50;;
38717;SDS011;24468;52.128;9.278;2023-12-22T04:44:50;15.93;;;3.80;;
38717;SDS011;24468;52.128;9.278;2023-12-22T04:47:17;10.73;;;2.70;;
38717;SDS011;24468;52.128;9.278;2023-12-22T04:49:42;12.85;;;2.50;;
38717;SDS011;24468;52.128;9.278;2023-12-22T04:52:10;13.95;;;2.55;;
38717;SDS011;24468;52.128;9.278;2023-12-22T04:54:36;14.60;;;2.65;;
38717;SDS011;24468;52.128;9.278;2023-12-22T04:57:02;13.10;;;3.20;;
38717;SDS011;24468;52.128;9.278;2023-12-22T04:59:28;12.30;;;2.75;;
38717;SDS011;24468;52.128;9.278;2023-12-22T05:01:54;16.33;;;3.08;;
38717;SDS011;24468;52.128;9.278;2023-12-22T05:04:20;23.02;;;3.15;;
38717;SDS011;24468;52.128;9.278;2023-12-22T05:06:46;16.75;;;3.40;;
38717;SDS011;24468;52.128;9.278;2023-12-22T05:09:12;12.93;;;2.85;;
38717;SDS011;24468;52.128;9.278;2023-12-22T05:11:37;11.90;;;3.00;;
38717;SDS011;24468;52.128;9.278;2023-12-22T05:14:03;10.95;;;2.35;;
38717;SDS011;24468;52.128;9.278;2023-12-22T05:16:29;9.38;;;2.20;;
38717;SDS011;24468;52.128;9.278;2023-12-22T05:18:56;13.23;;;1.95;;
38717;SDS011;24468;52.128;9.278;2023-12-22T05:21:23;14.13;;;2.90;;
38717;SDS011;24468;52.128;9.278;2023-12-22T05:23:49;15.93;;;2.45;;
38717;SDS011;24468;52.128;9.278;2023-12-22T05:26:19;13.95;;;3.15;;
38717;SDS011;24468;52.128;9.278;2023-12-22T05:28:45;10.55;;;2.10;;
38717;SDS011;24468;52.128;9.278;2023-12-22T05:31:12;12.82;;;2.42;;
38717;SDS011;24468;52.128;9.278;2023-12-22T05:33:38;12.50;;;2.67;;
38717;SDS011;24468;52.128;9.278;2023-12-22T05:36:04;10.13;;;2.17;;
38717;SDS011;24468;52.128;9.278;2023-12-22T05:38:30;11.63;;;1.98;;
38717;SDS011;24468;52.128;9.278;2023-12-22T05:40:56;11.82;;;2.30;;
38717;SDS011;24468;52.128;9.278;2023-12-22T05:43:22;10.93;;;2.72;;
38717;SDS011;24468;52.128;9.278;2023-12-22T05:45:47;10.98;;;2.50;;
38717;SDS011;24468;52.128;9.278;2023-12-22T05:48:13;9.32;;;2.08;;
38717;SDS011;24468;52.128;9.278;2023-12-22T05:50:38;12.10;;;2.85;;
38717;SDS011;24468;52.128;9.278;2023-12-22T05:53:04;16.88;;;2.47;;
38717;SDS011;24468;52.128;9.278;2023-12-22T05:55:29;9.68;;;2.05;;
38717;SDS011;24468;52.128;9.278;2023-12-22T05:57:55;9.15;;;2.40;;
38717;SDS011;24468;52.128;9.278;2023-12-22T06:00:20;7.10;;;2.10;;
38717;SDS011;24468;52.128;9.278;2023-12-22T06:02:47;15.05;;;3.47;;
38717;SDS011;24468;52.128;9.278;2023-12-22T06:05:12;10.85;;;2.88;;
38717;SDS011;24468;52.128;9.278;2023-12-22T06:07:38;10.27;;;2.00;;
38717;SDS011;24468;52.128;9.278;2023-12-22T06:10:07;13.05;;;1.52;;
38717;SDS011;24468;52.128;9.278;2023-12-22T06:12:34;10.15;;;2.33;;
38717;SDS011;24468;52.128;9.278;2023-12-22T06:15:01;11.10;;;3.05;;
38717;SDS011;24468;52.128;9.278;2023-12-22T06:17:26;6.35;;;1.40;;
38717;SDS011;24468;52.128;9.278;2023-12-22T06:19:52;5.93;;;1.52;;
38717;SDS011;24468;52.128;9.278;2023-12-22T06:22:18;8.68;;;1.50;;
38717;SDS011;24468;52.128;9.278;2023-12-22T06:24:43;8.65;;;1.52;;
38717;SDS011;24468;52.128;9.278;2023-12-22T06:27:09;4.95;;;1.38;;
38717;SDS011;24468;52.128;9.278;2023-12-22T06:29:35;13.48;;;2.35;;
38717;SDS011;24468;52.128;9.278;2023-12-22T06:32:01;12.95;;;2.60;;
38717;SDS011;24468;52.128;9.278;2023-12-22T06:34:26;5.78;;;2.03;;
38717;SDS011;24468;52.128;9.278;2023-12-22T06:36:52;5.45;;;1.13;;
38717;SDS011;24468;52.128;9.278;2023-12-22T06:39:17;7.35;;;2.42;;
38717;SDS011;24468;52.128;9.278;2023-12-22T06:41:44;12.60;;;2.72;;
38717;SDS011;24468;52.128;9.278;2023-12-22T06:44:10;11.15;;;1.88;;
38717;SDS011;24468;52.128;9.278;2023-12-22T06:46:36;8.00;;;1.55;;
38717;SDS011;24468;52.128;9.278;2023-12-22T06:49:01;18.92;;;3.03;;
38717;SDS011;24468;52.128;9.278;2023-12-22T06:51:28;8.60;;;1.75;;
38717;SDS011;24468;52.128;9.278;2023-12-22T06:53:57;9.60;;;2.03;;
38717;SDS011;24468;52.128;9.278;2023-12-22T06:56:25;13.98;;;2.10;;
38717;SDS011;24468;52.128;9.278;2023-12-22T06:58:54;15.70;;;2.80;;
38717;SDS011;24468;52.128;9.278;2023-12-22T07:01:29;15.15;;;2.80;;
38717;SDS011;24468;52.128;9.278;2023-12-22T07:03:57;10.48;;;2.15;;
38717;SDS011;24468;52.128;9.278;2023-12-22T07:06:25;13.38;;;2.35;;
38717;SDS011;24468;52.128;9.278;2023-12-22T07:11:46;15.50;;;2.83;;
38717;SDS011;24468;52.128;9.278;2023-12-22T07:14:17;13.23;;;2.53;;
38717;SDS011;24468;52.128;9.278;2023-12-22T07:16:43;9.13;;;2.20;;
38717;SDS011;24468;52.128;9.278;2023-12-22T07:19:09;10.15;;;3.13;;
38717;SDS011;24468;52.128;9.278;2023-12-22T07:21:39;12.20;;;2.35;;
38717;SDS011;24468;52.128;9.278;2023-12-22T07:24:06;8.75;;;2.20;;
38717;SDS011;24468;52.128;9.278;2023-12-22T07:26:32;11.73;;;2.65;;
38717;SDS011;24468;52.128;9.278;2023-12-22T07:28:58;12.57;;;2.90;;
38717;SDS011;24468;52.128;9.278;2023-12-22T07:31:24;7.55;;;2.10;;
38717;SDS011;24468;52.128;9.278;2023-12-22T07:33:50;14.50;;;2.80;;
38717;SDS011;24468;52.128;9.278;2023-12-22T07:36:16;14.02;;;3.00;;
38717;SDS011;24468;52.128;9.278;2023-12-22T07:38:46;17.25;;;3.50;;
38717;SDS011;24468;52.128;9.278;2023-12-22T07:41:12;14.85;;;3.25;;
38717;SDS011;24468;52.128;9.278;2023-12-22T07:43:38;15.20;;;2.92;;
38717;SDS011;24468;52.128;9.278;2023-12-22T07:46:03;13.02;;;2.72;;
38717;SDS011;24468;52.128;9.278;2023-12-22T07:48:29;11.68;;;2.78;;
38717;SDS011;24468;52.128;9.278;2023-12-22T07:50:55;13.45;;;2.28;;
38717;SDS011;24468;52.128;9.278;2023-12-22T07:53:20;11.75;;;2.33;;
38717;SDS011;24468;52.128;9.278;2023-12-22T07:55:46;17.98;;;3.72;;
38717;SDS011;24468;52.128;9.278;2023-12-22T07:58:12;17.83;;;3.83;;
38717;SDS011;24468;52.128;9.278;2023-12-22T08:00:38;15.40;;;4.38;;
38717;SDS011;24468;52.128;9.278;2023-12-22T08:03:04;14.80;;;3.88;;
38717;SDS011;24468;52.128;9.278;2023-12-22T08:05:30;18.10;;;3.22;;
38717;SDS011;24468;52.128;9.278;2023-12-22T08:07:56;12.35;;;2.92;;
38717;SDS011;24468;52.128;9.278;2023-12-22T08:10:21;14.25;;;2.53;;
38717;SDS011;24468;52.128;9.278;2023-12-22T08:12:47;13.75;;;3.22;;
38717;SDS011;24468;52.128;9.278;2023-12-22T08:15:13;10.07;;;2.83;;
38717;SDS011;24468;52.128;9.278;2023-12-22T08:17:48;16.92;;;3.03;;
38717;SDS011;24468;52.128;9.278;2023-12-22T08:20:18;14.23;;;3.42;;
38717;SDS011;24468;52.128;9.278;2023-12-22T08:22:45;12.57;;;2.63;;
38717;SDS011;24468;52.128;9.278;2023-12-22T08:25:12;15.73;;;3.10;;
38717;SDS011;24468;52.128;9.278;2023-12-22T08:27:38;16.75;;;3.20;;
38717;SDS011;24468;52.128;9.278;2023-12-22T08:30:03;14.27;;;2.55;;
38717;SDS011;24468;52.128;9.278;2023-12-22T08:32:30;14.10;;;2.85;;
38717;SDS011;24468;52.128;9.278;2023-12-22T08:34:55;10.73;;;2.63;;
38717;SDS011;24468;52.128;9.278;2023-12-22T08:37:21;20.08;;;3.65;;
38717;SDS011;24468;52.128;9.278;2023-12-22T08:39:46;24.63;;;4.18;;
38717;SDS011;24468;52.128;9.278;2023-12-22T08:42:12;7.95;;;3.00;;
38717;SDS011;24468;52.128;9.278;2023-12-22T08:44:37;17.35;;;4.22;;
38717;SDS011;24468;52.128;9.278;2023-12-22T08:47:03;10.07;;;2.53;;
38717;SDS011;24468;52.128;9.278;2023-12-22T08:49:28;12.70;;;2.33;;
38717;SDS011;24468;52.128;9.278;2023-12-22T08:51:54;16.67;;;2.83;;
38717;SDS011;24468;52.128;9.278;2023-12-22T08:54:19;17.48;;;2.67;;
38717;SDS011;24468;52.128;9.278;2023-12-22T08:56:45;14.15;;;2.67;;
38717;SDS011;24468;52.128;9.278;2023-12-22T08:59:10;15.88;;;3.05;;
38717;SDS011;24468;52.128;9.278;2023-12-22T09:01:37;14.05;;;2.80;;
38717;SDS011;24468;52.128;9.278;2023-12-22T09:04:02;17.35;;;3.50;;
38717;SDS011;24468;52.128;9.278;2023-12-22T09:06:28;15.25;;;2.85;;
38717;SDS011;24468;52.128;9.278;2023-12-22T09:08:54;14.25;;;2.97;;
38717;SDS011;24468;52.128;9.278;2023-12-22T09:11:20;12.20;;;2.38;;
38717;SDS011;24468;52.128;9.278;2023-12-22T09:13:46;15.95;;;3.42;;
38717;SDS011;24468;52.128;9.278;2023-12-22T09:16:12;17.20;;;3.13;;
38717;SDS011;24468;52.128;9.278;2023-12-22T09:18:40;10.55;;;2.60;;
38717;SDS011;24468;52.128;9.278;2023-12-22T09:21:07;13.32;;;3.17;;
38717;SDS011;24468;52.128;9.278;2023-12-22T09:23:33;14.65;;;2.97;;
38717;SDS011;24468;52.128;9.278;2023-12-22T09:25:58;10.20;;;2.53;;
38717;SDS011;24468;52.128;9.278;2023-12-22T09:28:24;11.85;;;3.08;;
38717;SDS011;24468;52.128;9.278;2023-12-22T09:30:50;18.10;;;3.13;;
38717;SDS011;24468;52.128;9.278;2023-12-22T09:33:16;14.43;;;3.97;;
38717;SDS011;24468;52.128;9.278;2023-12-22T09:35:42;12.10;;;3.47;;
38717;SDS011;24468;52.128;9.278;2023-12-22T09:38:11;12.63;;;3.13;;
38717;SDS011;24468;52.128;9.278;2023-12-22T09:43:06;13.82;;;2.67;;
38717;SDS011;24468;52.128;9.278;2023-12-22T09:45:33;12.60;;;4.20;;
38717;SDS011;24468;52.128;9.278;2023-12-22T09:47:59;12.45;;;3.05;;
38717;SDS011;24468;52.128;9.278;2023-12-22T09:50:26;11.23;;;2.15;;
38717;SDS011;24468;52.128;9.278;2023-12-22T09:52:53;11.95;;;2.70;;
38717;SDS011;24468;52.128;9.278;2023-12-22T09:55:21;8.82;;;2.40;;
38717;SDS011;24468;52.128;9.278;2023-12-22T09:57:47;13.35;;;2.92;;
38717;SDS011;24468;52.128;9.278;2023-12-22T10:00:17;9.07;;;2.63;;
38717;SDS011;24468;52.128;9.278;2023-12-22T10:02:44;11.73;;;3.35;;
38717;SDS011;24468;52.128;9.278;2023-12-22T10:05:10;7.32;;;2.50;;
38717;SDS011;24468;52.128;9.278;2023-12-22T10:07:41;13.02;;;3.15;;
38717;SDS011;24468;52.128;9.278;2023-12-22T10:10:09;10.25;;;2.47;;
38717;SDS011;24468;52.128;9.278;2023-12-22T10:12:36;14.05;;;4.35;;
38717;SDS011;24468;52.128;9.278;2023-12-22T10:15:05;13.07;;;3.40;;
38717;SDS011;24468;52.128;9.278;2023-12-22T10:17:32;11.25;;;2.97;;
38717;SDS011;24468;52.128;9.278;2023-12-22T10:19:58;15.75;;;3.20;;
38717;SDS011;24468;52.128;9.278;2023-12-22T10:22:24;11.43;;;3.13;;
38717;SDS011;24468;52.128;9.278;2023-12-22T10:24:50;13.32;;;2.67;;
38717;SDS011;24468;52.128;9.278;2023-12-22T10:27:18;13.50;;;3.20;;
38717;SDS011;24468;52.128;9.278;2023-12-22T10:29:54;11.52;;;2.97;;
38717;SDS011;24468;52.128;9.278;2023-12-22T10:32:21;11.95;;;2.40;;
38717;SDS011;24468;52.128;9.278;2023-12-22T10:34:48;13.30;;;2.33;;
38717;SDS011;24468;52.128;9.278;2023-12-22T10:37:16;9.77;;;2.08;;
38717;SDS011;24468;52.128;9.278;2023-12-22T10:39:42;14.52;;;2.38;;
38717;SDS011;24468;52.128;9.278;2023-12-22T10:42:07;10.27;;;1.92;;
38717;SDS011;24468;52.128;9.278;2023-12-22T10:44:34;9.60;;;2.53;;
38717;SDS011;24468;52.128;9.278;2023-12-22T10:47:04;9.65;;;2.42;;
38717;SDS011;24468;52.128;9.278;2023-12-22T10:49:31;6.80;;;1.73;;
38717;SDS011;24468;52.128;9.278;2023-12-22T10:51:57;13.05;;;2.83;;
38717;SDS011;24468;52.128;9.278;2023-12-22T10:54:23;7.00;;;2.38;;
38717;SDS011;24468;52.128;9.278;2023-12-22T10:56:48;13.13;;;2.17;;
38717;SDS011;24468;52.128;9.278;2023-12-22T10:59:21;9.80;;;2.28;;
38717;SDS011;24468;52.128;9.278;2023-12-22T11:01:48;10.20;;;2.55;;
38717;SDS011;24468;52.128;9.278;2023-12-22T11:04:19;11.23;;;2.05;;
38717;SDS011;24468;52.128;9.278;2023-12-22T11:06:49;6.45;;;1.67;;
38717;SDS011;24468;52.128;9.278;2023-12-22T11:09:18;10.45;;;2.05;;
38717;SDS011;24468;52.128;9.278;2023-12-22T11:11:49;4.28;;;1.15;;
38717;SDS011;24468;52.128;9.278;2023-12-22T11:14:16;10.63;;;1.13;;
38717;SDS011;24468;52.128;9.278;2023-12-22T11:16:44;7.97;;;1.35;;
38717;SDS011;24468;52.128;9.278;2023-12-22T11:19:13;8.32;;;2.00;;
38717;SDS011;24468;52.128;9.278;2023-12-22T11:21:40;7.15;;;1.20;;
38717;SDS011;24468;52.128;9.278;2023-12-22T11:24:07;11.45;;;2.63;;
38717;SDS011;24468;52.128;9.278;2023-12-22T11:26:33;4.25;;;1.95;;
38717;SDS011;24468;52.128;9.278;2023-12-22T11:29:00;4.43;;;1.05;;
38717;SDS011;24468;52.128;9.278;2023-12-22T11:31:28;7.13;;;2.05;;
38717;SDS011;24468;52.128;9.278;2023-12-22T11:33:57;10.35;;;1.60;;
38717;SDS011;24468;52.128;9.278;2023-12-22T11:36:26;6.03;;;1.52;;
38717;SDS011;24468;52.128;9.278;2023-12-22T11:38:54;4.03;;;1.13;;
38717;SDS011;24468;52.128;9.278;2023-12-22T11:41:30;7.22;;;1.35;;
38717;SDS011;24468;52.128;9.278;2023-12-22T11:43:59;3.67;;;0.75;;
38717;SDS011;24468;52.128;9.278;2023-12-22T11:46:28;8.35;;;1.30;;
38717;SDS011;24468;52.128;9.278;2023-12-22T11:48:55;5.63;;;0.82;;
38717;SDS011;24468;52.128;9.278;2023-12-22T11:51:21;7.15;;;1.25;;
38717;SDS011;24468;52.128;9.278;2023-12-22T11:53:47;8.80;;;2.08;;
38717;SDS011;24468;52.128;9.278;2023-12-22T11:56:13;7.40;;;1.75;;
38717;SDS011;24468;52.128;9.278;2023-12-22T11:58:45;5.95;;;1.20;;
38717;SDS011;24468;52.128;9.278;2023-12-22T12:01:18;4.55;;;1.25;;
38717;SDS011;24468;52.128;9.278;2023-12-22T12:03:58;9.80;;;2.05;;
38717;SDS011;24468;52.128;9.278;2023-12-22T12:08:54;7.05;;;1.42;;
38717;SDS011;24468;52.128;9.278;2023-12-22T12:14:32;4.43;;;1.23;;
38717;SDS011;24468;52.128;9.278;2023-12-22T12:17:06;5.85;;;1.48;;
38717;SDS011;24468;52.128;9.278;2023-12-22T12:19:34;6.38;;;1.20;;
38717;SDS011;24468;52.128;9.278;2023-12-22T12:22:04;7.78;;;1.50;;
38717;SDS011;24468;52.128;9.278;2023-12-22T12:24:30;4.75;;;1.10;;
38717;SDS011;24468;52.128;9.278;2023-12-22T12:26:56;7.03;;;1.55;;
38717;SDS011;24468;52.128;9.278;2023-12-22T12:29:22;3.85;;;1.38;;
38717;SDS011;24468;52.128;9.278;2023-12-22T12:31:49;4.05;;;1.45;;
38717;SDS011;24468;52.128;9.278;2023-12-22T12:34:15;4.43;;;0.73;;
38717;SDS011;24468;52.128;9.278;2023-12-22T12:36:45;3.33;;;0.80;;
38717;SDS011;24468;52.128;9.278;2023-12-22T12:39:14;5.07;;;1.02;;
38717;SDS011;24468;52.128;9.278;2023-12-22T12:41:42;3.42;;;0.88;;
38717;SDS011;24468;52.128;9.278;2023-12-22T12:44:11;5.20;;;1.08;;
38717;SDS011;24468;52.128;9.278;2023-12-22T12:46:38;4.60;;;1.17;;
38717;SDS011;24468;52.128;9.278;2023-12-22T12:49:10;5.45;;;1.05;;
38717;SDS011;24468;52.128;9.278;2023-12-22T12:51:44;8.82;;;1.27;;
38717;SDS011;24468;52.128;9.278;2023-12-22T12:54:13;2.92;;;0.80;;
38717;SDS011;24468;52.128;9.278;2023-12-22T12:56:43;4.10;;;1.13;;
38717;SDS011;24468;52.128;9.278;2023-12-22T12:59:16;5.28;;;1.90;;
38717;SDS011;24468;52.128;9.278;2023-12-22T13:01:45;4.95;;;0.65;;
38717;SDS011;24468;52.128;9.278;2023-12-22T13:04:12;6.32;;;1.13;;
38717;SDS011;24468;52.128;9.278;2023-12-22T13:09:14;4.22;;;1.33;;
38717;SDS011;24468;52.128;9.278;2023-12-22T13:11:42;4.03;;;1.15;;
38717;SDS011;24468;52.128;9.278;2023-12-22T13:14:11;3.15;;;1.05;;
38717;SDS011;24468;52.128;9.278;2023-12-22T13:16:37;3.75;;;0.88;;
38717;SDS011;24468;52.128;9.278;2023-12-22T13:19:04;2.65;;;0.75;;
38717;SDS011;24468;52.128;9.278;2023-12-22T13:21:30;5.07;;;2.17;;
38717;SDS011;24468;52.128;9.278;2023-12-22T13:26:41;4.28;;;1.42;;
38717;SDS011;24468;52.128;9.278;2023-12-22T13:29:07;4.03;;;1.17;;
38717;SDS011;24468;52.128;9.278;2023-12-22T13:31:36;3.25;;;0.60;;
38717;SDS011;24468;52.128;9.278;2023-12-22T13:34:04;6.55;;;1.05;;
38717;SDS011;24468;52.128;9.278;2023-12-22T13:36:37;2.85;;;0.75;;
38717;SDS011;24468;52.128;9.278;2023-12-22T13:39:13;3.58;;;0.85;;
38717;SDS011;24468;52.128;9.278;2023-12-22T13:41:39;4.13;;;1.08;;
38717;SDS011;24468;52.128;9.278;2023-12-22T13:44:07;2.63;;;0.80;;
38717;SDS011;24468;52.128;9.278;2023-12-22T13:46:33;3.15;;;0.77;;
38717;SDS011;24468;52.128;9.278;2023-12-22T13:49:00;3.17;;;0.80;;
38717;SDS011;24468;52.128;9.278;2023-12-22T13:51:27;3.17;;;1.08;;
38717;SDS011;24468;52.128;9.278;2023-12-22T13:54:03;6.40;;;1.25;;
38717;SDS011;24468;52.128;9.278;2023-12-22T13:56:32;3.15;;;1.00;;
38717;SDS011;24468;52.128;9.278;2023-12-22T13:59:02;4.07;;;0.95;;
38717;SDS011;24468;52.128;9.278;2023-12-22T14:01:29;4.22;;;1.10;;
38717;SDS011;24468;52.128;9.278;2023-12-22T14:03:55;3.85;;;2.17;;
38717;SDS011;24468;52.128;9.278;2023-12-22T14:06:22;4.55;;;2.50;;
38717;SDS011;24468;52.128;9.278;2023-12-22T14:08:49;1.83;;;0.80;;
38717;SDS011;24468;52.128;9.278;2023-12-22T14:11:15;3.60;;;1.40;;
38717;SDS011;24468;52.128;9.278;2023-12-22T14:13:40;3.83;;;0.82;;
38717;SDS011;24468;52.128;9.278;2023-12-22T14:16:06;5.38;;;0.52;;
38717;SDS011;24468;52.128;9.278;2023-12-22T14:18:32;3.78;;;1.23;;
38717;SDS011;24468;52.128;9.278;2023-12-22T14:20:58;3.72;;;0.75;;
38717;SDS011;24468;52.128;9.278;2023-12-22T14:23:27;4.97;;;1.10;;
38717;SDS011;24468;52.128;9.278;2023-12-22T14:25:52;5.85;;;1.15;;
38717;SDS011;24468;52.128;9.278;2023-12-22T14:28:18;5.28;;;0.93;;
38717;SDS011;24468;52.128;9.278;2023-12-22T14:30:44;5.30;;;1.33;;
38717;SDS011;24468;52.128;9.278;2023-12-22T14:33:10;2.05;;;1.00;;
38717;SDS011;24468;52.128;9.278;2023-12-22T14:35:35;1.15;;;0.80;;
38717;SDS011;24468;52.128;9.278;2023-12-22T14:38:01;4.70;;;0.73;;
38717;SDS011;24468;52.128;9.278;2023-12-22T14:40:27;3.35;;;0.82;;
38717;SDS011;24468;52.128;9.278;2023-12-22T14:42:53;3.75;;;0.68;;
38717;SDS011;24468;52.128;9.278;2023-12-22T14:45:19;3.35;;;0.57;;
38717;SDS011;24468;52.128;9.278;2023-12-22T14:47:44;2.20;;;0.55;;
38717;SDS011;24468;52.128;9.278;2023-12-22T14:50:10;1.70;;;0.63;;
38717;SDS011;24468;52.128;9.278;2023-12-22T14:52:35;2.42;;;0.50;;
38717;SDS011;24468;52.128;9.278;2023-12-22T14:55:01;5.95;;;0.82;;